Time;durP1;ratioP1;P1;durP2;ratioP2;P2;SDS_P1;SDS_P2;PMS_P1;PMS_P2;Temp;Humidity;BMP_temperature;BMP_pressure;BME280_temperature;BME280_humidity;BME280_pressure;Samples;Min_cycle;Max_cycle;Signal;HPM_P1;HPM_P2
2022/04/18 00:00:43;;;;;;;4.45;2.10;;;20.90;54.00;;;;;;5055942;28;20056;-71
2022/04/18 00:03:09;;;;;;;5.05;1.90;;;21.00;54.10;;;;;;5056017;28;20037;-70
2022/04/18 00:05:35;;;;;;;3.33;2.25;;;20.90;54.10;;;;;;5058895;28;20037;-71
2022/04/18 00:08:03;;;;;;;1.95;1.75;;;20.90;54.10;;;;;;5063468;28;20067;-72
2022/04/18 00:10:29;;;;;;;2.47;1.83;;;20.80;54.00;;;;;;5063973;28;20044;-71
2022/04/18 00:12:55;;;;;;;3.42;2.30;;;20.80;53.90;;;;;;5079561;28;20095;-71
2022/04/18 00:15:23;;;;;;;3.80;1.70;;;20.90;54.00;;;;;;5078955;28;20053;-71
2022/04/18 00:17:49;;;;;;;3.22;2.35;;;20.80;53.90;;;;;;5079601;28;20040;-71
2022/04/18 00:20:15;;;;;;;3.40;1.83;;;20.80;53.80;;;;;;5060769;28;20037;-71
2022/04/18 00:22:42;;;;;;;2.80;2.30;;;20.80;53.70;;;;;;5060092;28;20302;-71
2022/04/18 00:25:08;;;;;;;2.95;1.85;;;20.80;53.70;;;;;;5064055;28;20033;-71
2022/04/18 00:27:34;;;;;;;2.85;2.15;;;20.90;53.60;;;;;;5079392;28;20091;-71
2022/04/18 00:30:01;;;;;;;2.47;1.73;;;20.80;53.50;;;;;;5077449;28;20063;-71
2022/04/18 00:32:28;;;;;;;2.75;2.05;;;21.00;53.50;;;;;;5078483;28;20044;-71
2022/04/18 00:34:55;;;;;;;2.20;1.95;;;20.90;53.40;;;;;;5079091;28;20082;-71
2022/04/18 00:37:21;;;;;;;2.80;2.00;;;20.90;53.40;;;;;;5079015;28;20048;-70
2022/04/18 00:39:47;;;;;;;2.05;1.80;;;20.90;53.30;;;;;;5077046;28;20064;-71
2022/04/18 00:42:13;;;;;;;4.45;2.20;;;20.80;53.30;;;;;;5079465;28;20072;-70
2022/04/18 00:44:39;;;;;;;4.63;2.05;;;20.90;53.30;;;;;;5078788;28;20081;-70
2022/04/18 00:47:06;;;;;;;2.08;1.77;;;20.70;53.30;;;;;;5073695;28;20041;-71
2022/04/18 00:49:34;;;;;;;3.15;2.22;;;20.70;53.40;;;;;;5058698;28;20049;-71
2022/04/18 00:52:03;;;;;;;2.97;1.85;;;20.70;53.40;;;;;;5058833;28;20108;-71
2022/04/18 00:54:32;;;;;;;2.25;1.98;;;20.70;53.40;;;;;;5059147;28;20093;-71
2022/04/18 00:56:58;;;;;;;4.90;1.88;;;20.70;53.60;;;;;;5057855;28;20105;-71
2022/04/18 00:59:24;;;;;;;1.92;1.50;;;20.70;53.60;;;;;;5065489;28;20056;-71
2022/04/18 01:01:50;;;;;;;3.50;1.95;;;20.70;53.60;;;;;;5076993;28;20060;-70
2022/04/18 01:04:17;;;;;;;2.88;2.00;;;20.70;53.70;;;;;;5070858;28;20041;-71
2022/04/18 01:06:43;;;;;;;3.10;1.80;;;20.60;53.50;;;;;;5056954;28;20037;-71
2022/04/18 01:09:10;;;;;;;2.33;1.95;;;20.70;53.50;;;;;;5089850;28;20045;-70
2022/04/18 01:11:37;;;;;;;3.08;1.83;;;20.70;53.50;;;;;;5073291;28;20104;-71
2022/04/18 01:14:03;;;;;;;2.17;1.50;;;20.70;53.40;;;;;;5076831;28;20048;-71
2022/04/18 01:16:51;;;;;;;3.40;2.13;;;20.70;53.30;;;;;;5075281;28;20055;-70
2022/04/18 01:19:38;;;;;;;2.92;2.20;;;20.70;53.30;;;;;;5074605;28;20052;-71
2022/04/18 01:22:09;;;;;;;5.57;2.13;;;20.70;53.30;;;;;;5062785;28;20038;-71
2022/04/18 01:30:41;;;;;;;1.92;1.70;;;20.70;53.20;;;;;;5056657;28;20041;-71
2022/04/18 01:33:09;;;;;;;3.40;1.83;;;20.70;53.20;;;;;;5062605;28;20049;-70
2022/04/18 01:35:36;;;;;;;3.60;1.95;;;20.70;53.30;;;;;;5077117;28;20040;-71
2022/04/18 01:38:04;;;;;;;1.55;1.45;;;20.70;53.30;;;;;;5061688;28;20113;-70
2022/04/18 01:40:30;;;;;;;2.78;1.80;;;20.60;53.10;;;;;;5057301;28;20037;-71
2022/04/18 01:42:56;;;;;;;1.77;1.40;;;20.60;53.30;;;;;;5073538;28;20045;-71
2022/04/18 01:45:23;;;;;;;3.25;1.70;;;20.70;53.30;;;;;;5073803;28;20045;-71
2022/04/18 01:48:00;;;;;;;4.22;1.98;;;20.50;53.30;;;;;;5073815;28;20037;-71
2022/04/18 01:50:28;;;;;;;2.60;2.05;;;20.60;53.20;;;;;;5073353;28;20068;-70
2022/04/18 01:52:54;;;;;;;2.90;2.03;;;20.60;53.30;;;;;;5055258;28;20053;-71
2022/04/18 01:55:21;;;;;;;2.60;1.95;;;20.50;53.40;;;;;;5073434;28;20076;-70
2022/04/18 01:57:53;;;;;;;3.67;2.15;;;20.60;53.40;;;;;;5073605;28;20030;-71
2022/04/18 02:00:19;;;;;;;3.08;2.13;;;20.60;53.40;;;;;;5071719;28;20108;-70
2022/04/18 02:02:45;;;;;;;4.85;2.53;;;20.60;53.30;;;;;;5056943;28;20049;-70
2022/04/18 02:05:13;;;;;;;6.20;2.38;;;20.60;53.30;;;;;;5066323;28;20037;-70
2022/04/18 02:07:39;;;;;;;2.53;2.17;;;20.60;53.20;;;;;;5059783;28;20064;-71
2022/04/18 02:10:07;;;;;;;4.07;1.92;;;20.50;53.30;;;;;;5062219;28;20068;-70
2022/04/18 02:12:34;;;;;;;3.78;2.17;;;20.60;53.20;;;;;;5071691;28;20037;-71
2022/04/18 02:15:04;;;;;;;3.53;2.28;;;20.60;53.20;;;;;;5075653;28;20041;-70
2022/04/18 02:17:34;;;;;;;5.75;2.45;;;20.60;53.20;;;;;;5076399;28;20097;-71
2022/04/18 02:20:00;;;;;;;3.05;2.20;;;20.60;53.10;;;;;;5076292;28;20097;-70
2022/04/18 02:22:27;;;;;;;2.85;2.13;;;20.60;53.10;;;;;;5060969;28;20041;-70
2022/04/18 02:24:57;;;;;;;3.65;2.45;;;20.50;53.10;;;;;;5074939;28;20033;-70
2022/04/18 02:27:24;;;;;;;5.95;2.30;;;20.60;53.20;;;;;;5056637;28;20029;-71
2022/04/18 02:29:50;;;;;;;8.50;2.50;;;20.50;53.20;;;;;;5068893;28;20045;-71
2022/04/18 02:35:04;;;;;;;3.75;2.60;;;20.40;53.30;;;;;;5074832;28;20040;-71
2022/04/18 02:37:30;;;;;;;3.38;1.90;;;20.40;53.30;;;;;;5056437;28;20063;-70
2022/04/18 02:39:59;;;;;;;4.95;2.20;;;20.40;53.30;;;;;;5060878;28;20033;-71
2022/04/18 02:42:26;;;;;;;3.90;2.17;;;20.40;53.30;;;;;;5071758;28;20041;-71
2022/04/18 02:44:52;;;;;;;4.65;2.63;;;20.50;53.40;;;;;;5076062;28;20049;-71
2022/04/18 02:47:34;;;;;;;4.75;2.50;;;20.50;53.60;;;;;;5056176;28;20047;-70
2022/04/18 02:50:01;;;;;;;3.67;2.15;;;20.40;53.60;;;;;;5056433;28;20100;-70
2022/04/18 02:52:27;;;;;;;4.40;2.90;;;20.30;53.70;;;;;;5056336;28;20087;-71
2022/04/18 02:54:53;;;;;;;4.03;2.70;;;20.40;53.70;;;;;;5055887;28;20038;-71
2022/04/18 02:57:20;;;;;;;5.28;2.33;;;20.30;53.50;;;;;;5073559;28;20033;-70
2022/04/18 02:59:46;;;;;;;3.40;2.20;;;20.30;53.50;;;;;;5076474;28;20037;-70
2022/04/18 03:02:12;;;;;;;4.63;2.53;;;20.40;53.40;;;;;;5075806;28;20048;-70
2022/04/18 03:04:40;;;;;;;4.63;2.72;;;20.40;53.40;;;;;;5075739;28;20037;-71
2022/04/18 03:07:06;;;;;;;4.00;2.33;;;20.30;53.30;;;;;;5061926;28;20034;-71
2022/04/18 03:09:33;;;;;;;4.82;2.60;;;20.30;53.30;;;;;;5056510;28;20076;-70
2022/04/18 03:12:01;;;;;;;4.32;2.70;;;20.50;53.30;;;;;;5056207;28;20101;-71
2022/04/18 03:14:29;;;;;;;6.60;3.28;;;20.40;53.20;;;;;;5055734;28;20052;-70
2022/04/18 03:17:00;;;;;;;5.60;2.45;;;20.40;53.20;;;;;;5095068;28;20100;-71
2022/04/18 03:19:27;;;;;;;4.40;2.90;;;20.40;53.20;;;;;;5073219;28;20037;-71
2022/04/18 03:21:59;;;;;;;3.92;3.17;;;20.30;53.30;;;;;;5070874;28;20038;-70
2022/04/18 03:24:26;;;;;;;5.50;3.08;;;20.30;53.30;;;;;;5072177;28;20109;-70
2022/04/18 03:27:10;;;;;;;5.22;2.78;;;20.30;53.40;;;;;;5072293;28;20037;-70
2022/04/18 03:29:37;;;;;;;8.95;3.05;;;20.20;53.30;;;;;;5074215;28;20052;-71
2022/04/18 03:32:05;;;;;;;4.38;2.42;;;20.30;53.40;;;;;;5078412;28;20049;-71
2022/04/18 03:34:33;;;;;;;5.53;2.80;;;20.20;53.40;;;;;;5087333;28;20061;-71
2022/04/18 03:39:50;;;;;;;4.47;3.30;;;20.20;53.50;;;;;;5040521;28;20033;-71
2022/04/18 03:42:29;;;;;;;8.73;2.97;;;20.30;53.70;;;;;;5059322;28;20058;-70
2022/04/18 03:45:03;;;;;;;5.07;2.08;;;20.10;53.60;;;;;;5059371;28;20038;-70
2022/04/18 03:47:30;;;;;;;8.88;2.72;;;20.30;53.90;;;;;;5059251;28;20054;-71
2022/04/18 03:49:57;;;;;;;4.80;2.60;;;20.30;53.70;;;;;;5081569;28;20110;-70
2022/04/18 03:52:24;;;;;;;4.28;3.28;;;20.20;53.50;;;;;;5072706;28;20071;-70
2022/04/18 03:54:54;;;;;;;5.85;2.33;;;20.30;53.40;;;;;;5059176;28;20093;-70
2022/04/18 03:57:25;;;;;;;5.60;2.77;;;20.40;53.30;;;;;;5059134;28;20106;-70
2022/04/18 04:00:07;;;;;;;3.00;2.58;;;20.40;53.10;;;;;;5059149;28;20076;-71
2022/04/18 04:02:43;;;;;;;4.97;2.63;;;20.40;53.10;;;;;;5062461;28;20036;-70
2022/04/18 04:05:15;;;;;;;7.05;2.85;;;20.30;53.00;;;;;;5058448;28;20033;-71
2022/04/18 04:07:45;;;;;;;4.55;2.65;;;20.40;53.00;;;;;;5067774;28;20048;-71
2022/04/18 04:10:23;;;;;;;4.22;2.78;;;20.50;53.20;;;;;;5068467;28;20037;-70
2022/04/18 04:12:49;;;;;;;4.50;2.75;;;20.50;53.20;;;;;;5060460;28;20051;-70
2022/04/18 04:15:34;;;;;;;7.30;2.78;;;20.40;53.10;;;;;;5058878;28;20034;-71
2022/04/18 04:18:06;;;;;;;3.83;2.60;;;20.40;53.30;;;;;;5111964;28;20040;-71
2022/04/18 04:20:32;;;;;;;4.72;3.58;;;20.30;53.40;;;;;;5074723;28;20033;-71
2022/04/18 04:22:59;;;;;;;4.53;2.53;;;20.30;53.50;;;;;;5072121;28;20036;-71
2022/04/18 04:25:42;;;;;;;6.00;3.03;;;20.30;53.70;;;;;;5077265;28;20048;-70
2022/04/18 04:28:13;;;;;;;8.60;2.83;;;20.20;53.60;;;;;;5074364;28;20052;-70
2022/04/18 04:30:41;;;;;;;6.57;2.45;;;20.30;53.80;;;;;;5069730;28;20032;-70
2022/04/18 04:33:07;;;;;;;4.53;2.90;;;20.20;53.80;;;;;;5077425;28;20060;-70
2022/04/18 04:35:34;;;;;;;2.03;1.63;;;20.20;53.60;;;;;;5076317;28;20044;-69
2022/04/18 04:38:12;;;;;;;1.83;1.30;;;20.20;46.10;;;;;;5075693;28;20041;-70
2022/04/18 04:40:49;;;;;;;4.47;1.45;;;20.40;46.00;;;;;;5064699;28;20068;-70
2022/04/18 04:43:27;;;;;;;3.22;2.00;;;20.50;43.90;;;;;;5076889;28;20029;-70
2022/04/18 04:45:56;;;;;;;2.08;1.55;;;20.60;43.10;;;;;;5076264;28;20041;-70
2022/04/18 04:48:28;;;;;;;;;;;20.60;41.70;;;;;;5075338;28;20041;-70
2022/04/18 04:50:59;;;;;;;1.00;1.00;;;20.80;40.40;;;;;;5073889;28;19915;-70
2022/04/18 04:53:25;;;;;;;2.03;1.40;;;20.90;42.40;;;;;;5072481;28;20165;-70
2022/04/18 04:55:54;;;;;;;2.47;1.90;;;20.90;42.40;;;;;;5072355;28;20059;-69
2022/04/18 04:58:21;;;;;;;9.07;3.63;;;21.00;41.80;;;;;;5076734;28;20037;-70
2022/04/18 05:00:53;;;;;;;4.97;3.40;;;21.00;41.90;;;;;;5075900;28;20064;-71
2022/04/18 05:03:39;;;;;;;8.05;4.57;;;21.10;43.50;;;;;;5076840;28;20033;-69
2022/04/18 05:06:10;;;;;;;4.47;2.75;;;21.40;41.70;;;;;;5078171;28;20052;-69
2022/04/18 05:08:43;;;;;;;6.80;3.35;;;21.40;41.20;;;;;;5062088;28;20076;-69
2022/04/18 05:11:09;;;;;;;3.90;2.38;;;21.40;40.10;;;;;;5091294;28;20071;-69
2022/04/18 05:13:46;;;;;;;3.97;3.13;;;21.40;42.50;;;;;;5069638;28;20061;-70
2022/04/18 05:16:15;;;;;;;4.82;3.35;;;21.50;51.50;;;;;;5085340;28;20072;-70
2022/04/18 05:19:00;;;;;;;4.18;3.13;;;21.50;54.00;;;;;;5097224;28;20062;-70
2022/04/18 05:21:26;;;;;;;11.75;3.80;;;21.30;55.10;;;;;;5076230;28;20042;-69
2022/04/18 05:23:56;;;;;;;5.82;3.53;;;21.40;55.10;;;;;;5092552;28;20041;-70
2022/04/18 05:26:24;;;;;;;6.03;3.50;;;21.20;55.40;;;;;;5088465;28;20257;-70
2022/04/18 05:28:50;;;;;;;3.78;2.30;;;21.10;55.70;;;;;;5094576;28;20040;-70
2022/04/18 05:31:17;;;;;;;6.25;2.78;;;21.20;56.50;;;;;;5088323;28;20066;-69
2022/04/18 05:33:43;;;;;;;7.75;2.60;;;21.30;55.60;;;;;;5093623;28;20097;-68
2022/04/18 05:36:31;;;;;;;4.95;2.80;;;21.60;54.30;;;;;;5081931;28;20452;-70
2022/04/18 05:38:59;;;;;;;7.32;3.70;;;21.70;52.70;;;;;;5092833;28;20063;-69
2022/04/18 05:41:45;;;;;;;9.85;4.30;;;21.70;51.20;;;;;;5075092;28;20037;-69
2022/04/18 05:44:18;;;;;;;10.50;3.63;;;21.60;51.10;;;;;;5071886;28;20052;-70
2022/04/18 05:46:55;;;;;;;6.85;3.45;;;21.50;52.00;;;;;;5073397;28;20049;-69
2022/04/18 05:49:22;;;;;;;7.53;3.90;;;21.40;52.60;;;;;;5092612;28;20048;-70
2022/04/18 05:51:50;;;;;;;6.80;3.80;;;21.30;53.40;;;;;;5077066;28;20057;-70
2022/04/18 05:54:17;;;;;;;5.80;4.13;;;21.30;53.70;;;;;;5078566;28;20092;-69
2022/04/18 05:56:52;;;;;;;7.57;4.10;;;21.20;53.80;;;;;;5079037;28;20037;-70
2022/04/18 05:59:24;;;;;;;7.43;3.65;;;21.20;54.00;;;;;;5074733;28;20036;-69
2022/04/18 06:01:59;;;;;;;11.07;3.40;;;21.10;53.10;;;;;;5090137;28;20070;-70
2022/04/18 06:04:33;;;;;;;8.02;4.00;;;21.10;55.40;;;;;;5069524;28;20044;-70
2022/04/18 06:07:20;;;;;;;6.03;3.92;;;21.10;55.90;;;;;;5060318;28;20106;-70
2022/04/18 06:09:54;;;;;;;5.75;2.95;;;21.10;56.10;;;;;;5069656;28;20108;-70
2022/04/18 06:12:21;;;;;;;2.05;1.55;;;21.10;46.10;;;;;;5075319;28;20133;-69
2022/04/18 06:14:50;;;;;;;3.05;1.25;;;21.20;41.90;;;;;;5075443;28;20048;-69
2022/04/18 06:17:16;;;;;;;3.13;2.33;;;21.40;39.60;;;;;;5054530;28;20068;-70
2022/04/18 06:19:43;;;;;;;3.10;2.05;;;21.60;38.00;;;;;;5056036;28;20060;-69
2022/04/18 06:22:09;;;;;;;2.25;1.60;;;21.90;39.00;;;;;;5070784;28;20040;-69
2022/04/18 06:24:36;;;;;;;4.35;1.92;;;21.90;37.80;;;;;;5074866;28;20067;-69
2022/04/18 06:27:12;;;;;;;3.92;2.38;;;21.80;36.50;;;;;;5074954;28;20045;-68
2022/04/18 06:29:38;;;;;;;2.00;1.60;;;22.00;35.90;;;;;;5066092;28;20040;-69
2022/04/18 06:32:06;;;;;;;5.13;2.58;;;22.00;36.80;;;;;;5061578;28;20049;-70
2022/04/18 06:34:32;;;;;;;6.65;3.50;;;21.90;33.30;;;;;;5068890;28;20037;-70
2022/04/18 06:37:08;;;;;;;4.82;2.33;;;22.00;34.70;;;;;;5055524;28;20044;-70
2022/04/18 06:40:00;;;;;;;3.08;2.45;;;22.00;34.10;;;;;;5070625;28;20037;-70
2022/04/18 06:42:38;;;;;;;3.42;2.20;;;22.00;34.30;;;;;;5055566;28;20141;-70
2022/04/18 06:45:11;;;;;;;;;;;21.90;35.00;;;;;;5056498;28;20045;-69
2022/04/18 06:47:38;;;;;;;0.55;0.55;;;22.00;34.50;;;;;;5088618;28;19912;-69
2022/04/18 06:50:16;;;;;;;1.02;0.93;;;22.00;45.30;;;;;;5055494;28;20052;-70
2022/04/18 06:53:01;;;;;;;1.77;1.17;;;22.10;48.40;;;;;;5056024;28;20041;-72
2022/04/18 06:58:57;;;;;;;0.38;0.38;;;22.10;48.30;;;;;;5069308;28;20093;-68
2022/04/18 07:01:24;;;;;;;3.97;1.83;;;22.10;47.00;;;;;;5075269;28;20044;-70
2022/04/18 07:03:50;;;;;;;3.03;1.92;;;22.10;47.10;;;;;;5075175;28;20414;-69
2022/04/18 07:06:16;;;;;;;2.80;2.05;;;22.20;46.60;;;;;;5074610;28;20071;-69
2022/04/18 07:08:45;;;;;;;4.97;1.45;;;22.20;46.60;;;;;;5075158;28;20053;-69
2022/04/18 07:11:30;;;;;;;2.28;1.80;;;22.20;46.40;;;;;;5075574;28;20041;-69
2022/04/18 07:13:56;;;;;;;2.90;2.00;;;22.10;46.00;;;;;;5072055;28;20029;-70
2022/04/18 07:16:23;;;;;;;3.10;1.23;;;22.20;46.00;;;;;;5062936;28;20037;-69
2022/04/18 07:18:50;;;;;;;3.50;1.50;;;22.20;45.80;;;;;;5074894;28;20079;-68
2022/04/18 07:21:17;;;;;;;1.83;1.63;;;22.20;47.00;;;;;;5061768;28;20072;-69
2022/04/18 07:23:43;;;;;;;1.00;0.82;;;22.30;46.70;;;;;;5074043;28;20052;-70
2022/04/18 07:26:10;;;;;;;4.82;1.73;;;22.60;47.20;;;;;;5075040;28;20060;-70
2022/04/18 07:28:39;;;;;;;2.80;2.38;;;22.60;47.30;;;;;;5071446;28;20057;-70
2022/04/18 07:31:07;;;;;;;3.25;2.00;;;22.90;42.20;;;;;;5079357;28;20036;-67
2022/04/18 07:33:34;;;;;;;4.53;2.40;;;22.70;40.40;;;;;;5070303;28;20063;-70
2022/04/18 07:36:03;;;;;;;4.97;2.60;;;22.60;38.00;;;;;;5070549;28;20046;-70
2022/04/18 07:38:48;;;;;;;4.80;2.70;;;22.60;36.50;;;;;;5054238;28;20037;-69
2022/04/18 07:41:24;;;;;;;3.75;2.22;;;22.60;37.00;;;;;;5055136;28;20105;-70
2022/04/18 07:43:52;;;;;;;1.90;1.77;;;22.50;35.50;;;;;;5063270;28;20037;-70
2022/04/18 07:46:19;;;;;;;2.67;1.50;;;22.50;36.20;;;;;;5071260;28;20050;-72
2022/04/18 07:48:48;;;;;;;2.28;1.60;;;22.60;47.20;;;;;;5073026;28;20048;-71
2022/04/18 07:54:02;;;;;;;2.95;1.95;;;22.60;47.40;;;;;;5074554;28;20044;-70
2022/04/18 07:56:29;;;;;;;3.50;2.25;;;22.60;48.40;;;;;;5074747;28;20140;-70
2022/04/18 07:58:55;;;;;;;3.50;2.20;;;22.50;47.30;;;;;;5072805;28;20052;-71
2022/04/18 08:01:29;;;;;;;3.35;2.33;;;22.50;47.40;;;;;;5057690;28;20042;-70
2022/04/18 08:03:59;;;;;;;2.15;1.75;;;22.60;47.00;;;;;;5055006;28;20046;-70
2022/04/18 08:06:30;;;;;;;3.65;2.25;;;22.50;48.30;;;;;;5072808;28;20133;-69
2022/04/18 08:09:10;;;;;;;3.08;2.10;;;22.60;47.80;;;;;;5074724;28;20041;-69
2022/04/18 08:11:37;;;;;;;2.53;2.05;;;22.60;48.80;;;;;;5056150;28;20721;-71
2022/04/18 08:14:03;;;;;;;3.15;2.22;;;22.60;49.00;;;;;;5053831;28;20046;-70
2022/04/18 08:16:48;;;;;;;3.20;2.08;;;22.60;49.40;;;;;;5059886;28;20042;-69
2022/04/18 08:19:26;;;;;;;5.80;2.28;;;22.50;49.50;;;;;;5070922;28;20056;-69
2022/04/18 08:21:53;;;;;;;2.58;1.77;;;22.60;49.00;;;;;;5069513;28;20041;-70
2022/04/18 08:24:20;;;;;;;3.13;2.15;;;22.40;50.50;;;;;;5074261;28;20036;-69
2022/04/18 08:27:05;;;;;;;2.40;1.98;;;22.60;49.80;;;;;;5078233;28;20045;-70
2022/04/18 08:29:41;;;;;;;4.55;1.95;;;22.50;49.70;;;;;;5076781;28;20040;-71
2022/04/18 08:32:39;;;;;;;3.55;2.17;;;22.50;50.00;;;;;;5060794;28;20113;-71
2022/04/18 08:35:08;;;;;;;9.38;2.42;;;22.50;49.50;;;;;;5063337;28;20037;-70
2022/04/18 08:37:35;;;;;;;3.30;1.90;;;22.60;49.80;;;;;;5065026;28;20041;-70
2022/04/18 08:40:21;;;;;;;3.30;2.20;;;22.60;49.30;;;;;;5058023;28;20068;-70
2022/04/18 08:42:55;;;;;;;3.25;2.40;;;22.50;49.70;;;;;;5071773;28;20064;-70
2022/04/18 08:45:24;;;;;;;1.42;1.33;;;22.50;50.50;;;;;;5057320;28;20053;-70
2022/04/18 08:53:31;;;;;;;3.15;1.48;;;22.50;36.80;;;;;;5073290;28;20784;-69
2022/04/18 08:55:59;;;;;;;2.63;1.60;;;22.60;38.00;;;;;;5076624;28;20037;-70
2022/04/18 08:58:34;;;;;;;4.13;1.70;;;22.60;36.40;;;;;;5076232;28;20041;-71
2022/04/18 09:01:04;;;;;;;3.53;1.35;;;22.30;34.60;;;;;;5073740;28;20053;-69
2022/04/18 09:03:46;;;;;;;2.65;1.63;;;22.50;35.10;;;;;;5057407;28;20105;-70
2022/04/18 09:06:14;;;;;;;3.60;1.85;;;22.50;38.40;;;;;;5057340;28;20033;-71
2022/04/18 09:09:01;;;;;;;5.38;2.30;;;22.50;38.70;;;;;;5073728;28;20156;-69
2022/04/18 09:11:33;;;;;;;5.07;2.05;;;22.50;39.50;;;;;;5090685;28;20041;-69
2022/04/18 09:14:15;;;;;;;5.50;1.80;;;22.60;41.40;;;;;;5063480;28;20052;-70
2022/04/18 09:16:46;;;;;;;2.78;1.50;;;22.70;44.00;;;;;;5076562;28;20047;-70
2022/04/18 09:19:25;;;;;;;2.00;1.63;;;22.60;42.30;;;;;;5077285;28;20040;-70
2022/04/18 09:21:55;;;;;;;2.95;1.65;;;22.70;41.00;;;;;;5073030;28;20076;-70
2022/04/18 09:24:35;;;;;;;1.80;1.70;;;22.70;38.50;;;;;;5072590;28;20059;-69
2022/04/18 09:27:29;;;;;;;3.10;1.90;;;22.70;42.90;;;;;;5082790;28;20056;-71
2022/04/18 09:30:17;;;;;;;3.08;1.55;;;22.90;42.00;;;;;;5074100;28;20052;-70
2022/04/18 09:32:59;;;;;;;2.80;1.63;;;22.90;37.70;;;;;;5064129;28;20053;-69
2022/04/18 09:35:33;;;;;;;2.03;1.15;;;22.80;37.00;;;;;;5072429;28;20024;-69
2022/04/18 09:38:06;;;;;;;3.10;1.30;;;22.80;36.00;;;;;;5071433;28;20029;-70
2022/04/18 09:40:54;;;;;;;1.90;1.25;;;22.80;36.00;;;;;;5067745;28;20052;-69
2022/04/18 09:43:57;;;;;;;2.65;1.52;;;22.80;35.70;;;;;;5076410;28;20036;-70
2022/04/18 09:46:38;;;;;;;1.77;1.35;;;22.70;39.90;;;;;;5073847;28;20105;-70
2022/04/18 09:49:09;;;;;;;1.77;1.48;;;22.80;48.00;;;;;;5095753;28;20032;-71
2022/04/18 09:51:42;;;;;;;1.73;1.20;;;22.90;48.80;;;;;;5079097;28;20063;-72
2022/04/18 09:54:20;;;;;;;1.23;1.02;;;22.80;49.00;;;;;;5080731;28;20037;-71
2022/04/18 09:56:50;;;;;;;1.17;0.90;;;23.00;47.60;;;;;;5075043;28;20052;-71
2022/04/18 09:59:17;;;;;;;3.40;1.27;;;22.80;48.80;;;;;;5084838;28;20048;-71
2022/04/18 10:01:44;;;;;;;4.32;1.20;;;22.90;47.00;;;;;;5068760;28;20048;-71
2022/04/18 10:04:11;;;;;;;1.27;0.82;;;22.80;46.40;;;;;;5072697;28;20052;-71
2022/04/18 10:06:40;;;;;;;2.20;1.02;;;23.00;50.00;;;;;;5070456;28;20045;-71
2022/04/18 10:09:08;;;;;;;1.00;0.90;;;22.90;47.80;;;;;;5070269;28;20052;-71
2022/04/18 10:11:34;;;;;;;1.48;1.20;;;22.90;50.00;;;;;;5072868;28;20071;-71
2022/04/18 10:14:01;;;;;;;6.57;1.35;;;22.80;49.20;;;;;;5081070;28;20040;-71
2022/04/18 10:16:29;;;;;;;1.98;1.40;;;22.80;48.70;;;;;;5074870;28;20029;-71
2022/04/18 10:19:01;;;;;;;1.55;1.27;;;22.80;51.10;;;;;;5073372;28;20044;-72
2022/04/18 10:21:30;;;;;;;3.20;1.60;;;22.70;51.40;;;;;;5071995;28;20101;-72
2022/04/18 10:23:56;;;;;;;3.90;1.90;;;22.70;52.20;;;;;;5075381;28;20151;-71
2022/04/18 10:26:43;;;;;;;1.88;1.15;;;22.60;52.60;;;;;;5076775;28;20048;-71
2022/04/18 10:29:18;;;;;;;2.10;1.20;;;22.60;52.00;;;;;;5064327;28;20073;-72
2022/04/18 10:31:45;;;;;;;1.55;1.10;;;22.70;52.40;;;;;;5073171;28;20063;-71
2022/04/18 10:34:13;;;;;;;1.55;1.00;;;22.70;51.00;;;;;;5073736;28;20068;-72
2022/04/18 10:36:48;;;;;;;1.92;1.73;;;22.80;51.70;;;;;;5070192;28;20039;-72
2022/04/18 10:39:15;;;;;;;1.27;1.17;;;22.70;52.00;;;;;;5064736;28;20042;-71
2022/04/18 10:41:42;;;;;;;1.40;0.90;;;22.80;52.10;;;;;;5067941;28;20068;-72
2022/04/18 10:44:09;;;;;;;1.60;1.10;;;22.70;52.10;;;;;;5070714;28;20041;-71
2022/04/18 10:46:42;;;;;;;1.63;1.20;;;22.80;52.10;;;;;;5057140;28;20041;-71
2022/04/18 10:49:14;;;;;;;;;;;22.80;51.40;;;;;;5071633;28;20044;-71
2022/04/18 10:51:41;;;;;;;1.95;1.33;;;22.80;52.00;;;;;;5094850;28;20322;-71
2022/04/18 10:54:13;;;;;;;2.47;1.30;;;22.90;51.90;;;;;;5065359;28;20043;-71
2022/04/18 10:57:01;;;;;;;0.82;0.82;;;22.70;50.10;;;;;;5059223;28;20029;-69
2022/04/18 10:59:32;;;;;;;1.70;0.70;;;22.80;51.00;;;;;;5066445;28;20037;-77
2022/04/18 11:02:04;;;;;;;2.60;0.77;;;22.90;50.60;;;;;;5058676;28;20052;-78
2022/04/18 11:04:44;;;;;;;0.65;0.43;;;22.90;48.80;;;;;;5072311;28;20048;-70
2022/04/18 11:07:11;;;;;;;0.20;0.20;;;23.00;45.20;;;;;;5078119;28;20075;-70
2022/04/18 11:09:42;;;;;;;71.60;15.02;;;23.00;42.20;;;;;;5068760;28;20110;-70
2022/04/18 11:12:20;;;;;;;77.10;17.65;;;22.90;39.20;;;;;;5075076;28;20101;-70
2022/04/18 11:14:48;;;;;;;13.95;4.15;;;23.00;34.50;;;;;;5066288;28;20037;-70
2022/04/18 11:17:26;;;;;;;8.70;2.47;;;22.90;34.00;;;;;;5056365;28;20060;-70
2022/04/18 11:19:52;;;;;;;18.15;4.22;;;22.90;33.40;;;;;;5063794;28;20071;-70
2022/04/18 11:22:21;;;;;;;10.43;2.95;;;22.80;32.60;;;;;;5056762;28;20045;-69
2022/04/18 11:24:48;;;;;;;4.05;1.45;;;22.90;33.10;;;;;;5059692;28;20093;-69
2022/04/18 11:27:21;;;;;;;2.90;1.20;;;22.90;33.10;;;;;;5055727;28;20485;-69
2022/04/18 11:29:59;;;;;;;2.55;1.10;;;22.90;31.20;;;;;;5055712;28;20045;-70
2022/04/18 11:32:28;;;;;;;3.83;1.75;;;22.90;30.40;;;;;;5054522;28;20041;-69
2022/04/18 11:34:56;;;;;;;4.57;1.98;;;22.80;29.50;;;;;;5055461;28;20034;-69
2022/04/18 11:37:29;;;;;;;5.97;1.48;;;22.80;29.80;;;;;;5055262;28;20037;-70
2022/04/18 11:39:57;;;;;;;1.70;0.95;;;22.80;29.80;;;;;;5054643;28;20048;-69
2022/04/18 11:42:27;;;;;;;2.55;1.45;;;22.80;30.30;;;;;;5054763;28;20064;-69
2022/04/18 11:44:55;;;;;;;1.77;1.38;;;22.80;29.90;;;;;;5056323;28;20046;-70
2022/04/18 11:47:28;;;;;;;2.72;1.40;;;22.70;30.50;;;;;;5055579;28;20042;-69
2022/04/18 11:49:56;;;;;;;1.67;1.10;;;22.70;30.70;;;;;;5055344;28;20033;-69
2022/04/18 11:52:28;;;;;;;2.55;1.00;;;22.70;31.70;;;;;;5058719;28;20049;-69
2022/04/18 11:55:05;;;;;;;0.77;0.77;;;22.70;30.60;;;;;;5053998;28;20037;-69
2022/04/18 11:57:36;;;;;;;1.67;1.08;;;22.70;30.70;;;;;;5054258;28;20038;-68
2022/04/18 12:00:11;;;;;;;1.20;1.00;;;22.70;30.80;;;;;;5055600;28;20041;-69
2022/04/18 12:08:18;;;;;;;4.90;1.45;;;22.80;47.50;;;;;;5063967;28;20100;-69
2022/04/18 12:10:45;;;;;;;2.15;1.73;;;22.80;45.70;;;;;;5058737;28;20049;-70
2022/04/18 12:13:15;;;;;;;3.25;1.55;;;22.80;46.40;;;;;;5058570;28;20041;-69
2022/04/18 12:15:43;;;;;;;1.70;1.30;;;22.80;46.00;;;;;;5062653;28;20033;-68
2022/04/18 12:18:15;;;;;;;2.28;1.15;;;22.80;49.30;;;;;;5071841;28;20034;-67
2022/04/18 12:20:43;;;;;;;4.90;1.60;;;22.80;44.20;;;;;;5067750;28;20069;-67
2022/04/18 12:23:19;;;;;;;1.45;0.77;;;22.70;43.80;;;;;;5072205;28;20041;-68
2022/04/18 12:25:48;;;;;;;2.22;1.13;;;22.80;45.00;;;;;;5061432;28;20048;-69
2022/04/18 12:28:16;;;;;;;0.90;0.90;;;22.70;40.60;;;;;;5058584;28;20053;-69
2022/04/18 12:30:42;;;;;;;1.33;1.10;;;22.70;36.30;;;;;;5062716;28;20096;-69
2022/04/18 12:33:22;;;;;;;1.70;1.17;;;22.50;41.70;;;;;;5064463;28;20045;-70
2022/04/18 12:35:52;;;;;;;2.17;1.38;;;22.60;40.70;;;;;;5062928;28;20038;-69
2022/04/18 12:38:28;;;;;;;1.73;1.13;;;22.60;44.80;;;;;;5074673;28;20036;-72
2022/04/18 12:40:58;;;;;;;1.23;1.10;;;22.70;45.20;;;;;;5075526;28;20052;-70
2022/04/18 12:43:32;;;;;;;2.20;1.25;;;22.60;47.30;;;;;;5073947;28;20053;-73
2022/04/18 12:46:04;;;;;;;3.45;1.00;;;22.60;47.10;;;;;;5066954;28;20072;-69
2022/04/18 12:48:32;;;;;;;2.33;1.10;;;22.70;44.30;;;;;;5065033;28;20044;-70
2022/04/18 12:51:02;;;;;;;1.90;1.45;;;22.60;45.50;;;;;;5071818;28;20075;-69
2022/04/18 12:53:45;;;;;;;3.92;1.88;;;22.60;45.10;;;;;;5062444;28;20034;-70
2022/04/18 12:56:21;;;;;;;1.55;1.00;;;22.70;47.90;;;;;;5073139;28;20086;-69
2022/04/18 12:59:01;;;;;;;1.55;1.30;;;22.70;47.00;;;;;;5063089;28;20038;-69
2022/04/18 13:01:39;;;;;;;2.42;1.15;;;22.60;46.50;;;;;;5061623;28;20048;-70
2022/04/18 13:04:22;;;;;;;1.17;1.10;;;22.50;47.60;;;;;;5067763;28;20041;-70
2022/04/18 13:06:59;;;;;;;1.87;1.00;;;22.60;47.70;;;;;;5072525;28;20050;-69
2022/04/18 13:09:25;;;;;;;1.08;1.00;;;22.60;48.10;;;;;;5061853;28;20065;-70
2022/04/18 13:12:06;;;;;;;1.80;1.10;;;22.60;47.00;;;;;;5057084;28;20044;-69
2022/04/18 13:14:37;;;;;;;1.58;1.35;;;22.60;47.80;;;;;;5057467;28;20037;-69
2022/04/18 13:17:09;;;;;;;0.80;0.80;;;22.70;46.10;;;;;;5070641;28;20055;-70
2022/04/18 13:19:37;;;;;;;2.42;0.98;;;22.50;46.30;;;;;;5070419;28;20033;-70
2022/04/18 13:22:03;;;;;;;1.30;1.00;;;22.60;47.60;;;;;;5080155;28;20056;-70
2022/04/18 13:24:31;;;;;;;4.03;1.40;;;22.50;39.20;;;;;;5097559;28;20049;-69
2022/04/18 13:26:57;;;;;;;1.45;1.10;;;22.40;42.20;;;;;;5068826;28;20041;-69
2022/04/18 13:29:23;;;;;;;2.97;0.80;;;22.30;45.90;;;;;;5078633;28;20075;-69
2022/04/18 13:31:49;;;;;;;2.42;1.20;;;22.30;49.60;;;;;;5085284;28;20036;-69
2022/04/18 13:34:15;;;;;;;2.55;1.27;;;22.50;49.80;;;;;;5065275;28;20045;-69
2022/04/18 13:36:41;;;;;;;1.48;0.80;;;22.40;49.50;;;;;;5081734;28;20037;-69